Time;durP1;ratioP1;P1;durP2;ratioP2;P2;SDS_P1;SDS_P2;PMS_P1;PMS_P2;Temp;Humidity;BMP_temperature;BMP_pressure;BME280_temperature;BME280_humidity;BME280_pressure;Samples;Min_cycle;Max_cycle;Signal;HPM_P1;HPM_P2
2024/03/10 00:00:08;;;;;;;4.03;3.00;;;;;;;17.34;50.93;99670.56;10453656;28;20025;-62
2024/03/10 00:05:08;;;;;;;4.60;3.67;;;;;;;17.33;51.47;99674.34;10453994;28;20039;-62
2024/03/10 00:10:10;;;;;;;6.50;4.40;;;;;;;17.35;51.99;99674.03;10452102;28;20509;-62
2024/03/10 00:15:10;;;;;;;4.90;4.05;;;;;;;17.35;50.60;99679.38;10453364;28;20305;-62
2024/03/10 00:20:11;;;;;;;5.10;3.65;;;;;;;17.33;51.28;99668.19;10452559;28;20029;-60
2024/03/10 00:25:12;;;;;;;4.93;3.55;;;;;;;17.37;50.95;99661.09;10451076;28;20044;-62
2024/03/10 00:30:12;;;;;;;6.45;4.50;;;;;;;17.34;50.43;99653.69;10451940;28;20354;-62
2024/03/10 00:35:13;;;;;;;4.78;3.55;;;;;;;17.34;50.40;99653.69;10452529;28;20041;-62
2024/03/10 00:40:16;;;;;;;4.93;3.90;;;;;;;17.35;51.41;99642.66;10450831;28;20033;-62
2024/03/10 00:45:17;;;;;;;4.57;3.55;;;;;;;17.33;50.79;99658.25;10452293;28;20033;-61
2024/03/10 00:50:17;;;;;;;5.38;4.00;;;;;;;17.36;52.03;99660.31;10451566;28;20025;-61
2024/03/10 00:55:18;;;;;;;4.32;3.55;;;;;;;17.37;51.91;99659.19;10451904;28;20039;-62
2024/03/10 01:00:19;;;;;;;4.95;3.50;;;;;;;17.34;50.37;99669.75;10451665;28;20036;-62
2024/03/10 01:05:19;;;;;;;5.97;4.35;;;;;;;17.36;51.21;99654.16;10451459;28;20535;-61
2024/03/10 01:10:19;;;;;;;5.45;3.55;;;;;;;17.34;51.27;99659.84;10450982;28;20556;-61
2024/03/10 01:15:21;;;;;;;5.28;3.70;;;;;;;17.35;50.41;99668.66;10451169;28;20505;-61
2024/03/10 01:20:21;;;;;;;5.15;3.28;;;;;;;17.38;50.47;99673.38;10450343;28;20163;-61
2024/03/10 01:25:22;;;;;;;5.50;3.87;;;;;;;17.35;51.09;99658.72;10450765;28;20361;-60
2024/03/10 01:30:22;;;;;;;4.80;3.97;;;;;;;17.36;50.67;99649.59;10449711;28;20377;-61
2024/03/10 01:35:24;;;;;;;5.47;4.10;;;;;;;17.37;50.34;99648.50;10449149;28;20405;-61
2024/03/10 01:40:24;;;;;;;4.45;3.30;;;;;;;17.34;51.91;99638.41;10448296;28;20317;-61
2024/03/10 01:45:24;;;;;;;5.43;3.77;;;;;;;17.36;51.50;99627.38;10449918;28;20021;-60
2024/03/10 01:50:25;;;;;;;5.27;3.70;;;;;;;17.37;50.91;99629.72;10449018;28;20295;-61
2024/03/10 01:55:26;;;;;;;4.97;3.63;;;;;;;17.35;51.39;99610.50;10448174;28;20289;-61
2024/03/10 02:00:26;;;;;;;4.65;3.45;;;;;;;17.40;50.55;99606.88;10441745;28;20267;-59
2024/03/10 02:05:27;;;;;;;4.47;3.47;;;;;;;17.38;50.73;99587.66;10441677;28;20468;-59
2024/03/10 02:10:27;;;;;;;4.63;3.33;;;;;;;17.36;50.31;99592.53;10439214;28;20337;-61
2024/03/10 02:15:28;;;;;;;5.13;3.83;;;;;;;17.38;51.20;99593.78;10448674;28;20044;-61
2024/03/10 02:20:28;;;;;;;5.03;3.53;;;;;;;17.37;50.87;99592.22;10434754;28;20291;-61
2024/03/10 02:25:35;;;;;;;4.20;3.20;;;;;;;17.35;51.30;99586.38;10446903;28;20056;-61
2024/03/10 02:30:43;;;;;;;4.95;3.60;;;;;;;17.38;51.72;99590.31;10435925;28;20310;-61
2024/03/10 02:51:43;;;;;;;4.70;3.87;;;;;;;17.53;53.90;99576.47;10447738;28;20501;-61
2024/03/10 02:56:43;;;;;;;4.65;3.85;;;;;;;17.48;53.34;99571.25;10446629;28;20633;-61
2024/03/10 03:01:44;;;;;;;4.53;3.53;;;;;;;17.47;53.73;99578.50;10447653;28;20084;-61
2024/03/10 03:06:44;;;;;;;4.93;3.30;;;;;;;17.44;53.44;99581.81;10455807;28;20329;-61
2024/03/10 03:11:45;;;;;;;5.33;3.60;;;;;;;17.41;54.29;99573.63;10453997;28;20052;-61
2024/03/10 03:16:45;;;;;;;4.20;3.22;;;;;;;17.36;54.05;99574.56;10454626;28;20290;-61
2024/03/10 03:21:45;;;;;;;4.10;3.45;;;;;;;17.35;54.84;99567.63;10452328;28;20036;-61
2024/03/10 03:26:46;;;;;;;5.35;4.10;;;;;;;17.34;53.86;99560.69;10454043;28;20029;-61
2024/03/10 03:31:47;;;;;;;4.13;3.22;;;;;;;17.34;53.58;99554.56;10454450;28;20029;-61
2024/03/10 03:36:47;;;;;;;5.43;4.05;;;;;;;17.32;54.01;99544.16;10452896;28;20368;-61
2024/03/10 03:41:47;;;;;;;4.70;3.40;;;;;;;17.31;53.05;99547.16;10452026;28;20028;-62
2024/03/10 03:46:48;;;;;;;6.28;4.03;;;;;;;17.34;53.63;99543.84;10452481;28;20281;-61
2024/03/10 03:51:49;;;;;;;4.72;3.53;;;;;;;17.32;53.31;99533.44;10452849;28;20047;-61
2024/03/10 03:56:49;;;;;;;6.53;3.97;;;;;;;17.33;53.59;99523.50;10440859;28;20020;-61
2024/03/10 04:01:50;;;;;;;5.88;3.70;;;;;;;17.36;52.92;99520.97;10453555;28;20028;-61
2024/03/10 04:06:50;;;;;;;4.63;3.60;;;;;;;17.34;52.85;99515.16;10453999;28;20028;-61
2024/03/10 04:11:52;;;;;;;5.07;3.92;;;;;;;17.35;53.14;99505.22;10452900;28;20037;-61
2024/03/10 04:16:53;;;;;;;6.28;4.50;;;;;;;17.35;52.21;99508.69;10453518;28;20060;-61
2024/03/10 04:21:54;;;;;;;5.10;3.55;;;;;;;17.34;52.70;99506.34;10452922;28;20049;-60
2024/03/10 04:26:55;;;;;;;6.40;3.95;;;;;;;17.32;52.52;99492.47;10452995;28;20025;-61
2024/03/10 04:31:55;;;;;;;5.07;4.10;;;;;;;17.35;52.39;99497.19;10451098;28;20028;-61
2024/03/10 04:36:55;;;;;;;4.87;3.43;;;;;;;17.33;53.24;99486.00;10452730;28;20408;-61
2024/03/10 04:41:55;;;;;;;5.40;3.87;;;;;;;17.35;52.22;99487.25;10438907;28;20271;-61
2024/03/10 04:46:57;;;;;;;4.83;3.50;;;;;;;17.33;51.77;99473.41;10452542;28;20647;-61
2024/03/10 04:51:58;;;;;;;4.88;3.47;;;;;;;17.31;52.61;99475.59;10451733;28;20325;-61
2024/03/10 04:56:59;;;;;;;4.82;4.03;;;;;;;17.34;52.40;99469.59;10452045;28;20024;-61
2024/03/10 05:01:59;;;;;;;5.88;3.75;;;;;;;17.31;51.93;99464.09;10450188;28;20032;-61
2024/03/10 05:07:00;;;;;;;6.40;3.75;;;;;;;17.33;51.65;99461.88;10451687;28;20115;-61
2024/03/10 05:12:01;;;;;;;4.07;3.50;;;;;;;17.34;52.98;99472.28;10450843;28;20055;-61
2024/03/10 05:17:02;;;;;;;5.13;4.25;;;;;;;17.32;51.94;99466.47;10450044;28;20364;-61
2024/03/10 05:22:03;;;;;;;5.50;3.67;;;;;;;17.34;51.88;99463.47;10443486;28;20027;-60
2024/03/10 05:27:03;;;;;;;5.97;4.30;;;;;;;17.35;51.22;99455.09;10444734;28;20033;-60
2024/03/10 05:32:04;;;;;;;3.87;3.30;;;;;;;17.32;51.34;99469.16;10433882;28;20392;-61
2024/03/10 05:37:04;;;;;;;5.18;3.85;;;;;;;17.27;52.82;99458.56;10445920;28;20286;-63
2024/03/10 05:42:05;;;;;;;6.13;3.72;;;;;;;17.31;51.61;99456.84;10445533;28;20013;-62
2024/03/10 05:47:05;;;;;;;7.07;4.28;;;;;;;17.33;51.34;99456.53;10445089;28;20039;-62
2024/03/10 05:52:07;;;;;;;6.95;5.70;;;;;;;17.34;50.89;99458.88;10447451;28;20027;-62
2024/03/10 05:57:07;;;;;;;7.30;4.63;;;;;;;17.34;51.69;99458.09;10444126;28;20033;-63
2024/03/10 06:02:08;;;;;;;13.00;6.23;;;;;;;17.34;50.67;99463.47;10439609;28;20469;-61
2024/03/10 06:07:09;;;;;;;13.80;7.43;;;;;;;17.46;50.58;99453.66;10443981;28;20276;-60
2024/03/10 06:12:10;;;;;;;12.50;6.60;;;;;;;17.49;52.23;99450.34;10446871;28;20302;-61
2024/03/10 06:17:10;;;;;;;21.40;6.50;;;;;;;17.49;52.25;99447.66;10446782;28;20385;-60
2024/03/10 06:27:30;;;;;;;18.10;6.78;;;;;;;17.37;51.80;99457.47;10447363;28;20021;-61
2024/03/10 06:32:31;;;;;;;24.40;6.82;;;;;;;17.37;52.74;99454.78;10446552;28;20033;-61
2024/03/10 06:37:33;;;;;;;12.37;6.50;;;;;;;17.39;53.24;99457.94;10446186;28;20021;-62
2024/03/10 06:42:34;;;;;;;14.80;5.85;;;;;;;17.43;52.21;99451.63;10444846;28;20678;-61
2024/03/10 06:47:34;;;;;;;19.00;6.17;;;;;;;17.43;52.76;99469.59;10442564;28;20083;-61
2024/03/10 06:52:35;;;;;;;12.73;5.82;;;;;;;17.43;52.67;99461.56;10446267;28;20754;-62
2024/03/10 06:57:37;;;;;;;24.45;6.90;;;;;;;17.40;52.88;99457.59;10445711;28;20146;-62
2024/03/10 07:02:40;;;;;;;14.68;6.95;;;;;;;17.43;54.26;99462.34;10433189;28;20028;-61
2024/03/10 07:07:41;;;;;;;16.35;5.78;;;;;;;17.43;54.94;99470.38;10446746;28;20040;-61
2024/03/10 07:12:42;;;;;;;15.68;7.13;;;;;;;17.47;56.02;99473.22;10445612;28;20352;-59
2024/03/10 07:17:42;;;;;;;16.45;7.47;;;;;;;17.46;55.52;99472.44;10445401;28;20032;-60
2024/03/10 07:22:42;;;;;;;23.47;6.53;;;;;;;17.47;54.77;99468.63;10445281;28;20036;-61
2024/03/10 07:27:43;;;;;;;25.57;7.50;;;;;;;17.47;55.17;99475.91;10443911;28;20282;-60
2024/03/10 07:32:45;;;;;;;16.85;7.25;;;;;;;17.42;55.11;99476.06;10444756;28;20314;-61
2024/03/10 07:37:46;;;;;;;19.55;7.10;;;;;;;17.28;54.43;99492.28;10445058;28;20054;-60
2024/03/10 07:42:47;;;;;;;14.13;6.70;;;;;;;17.23;54.25;99500.50;10445097;28;20098;-59
2024/03/10 07:47:48;;;;;;;20.38;6.45;;;;;;;17.17;55.03;99510.59;10443588;28;20283;-59
2024/03/10 07:52:48;;;;;;;14.80;6.03;;;;;;;17.16;54.76;99513.56;10452073;28;20021;-61
2024/03/10 07:57:49;;;;;;;12.85;6.50;;;;;;;17.06;55.12;99503.19;10450932;28;20032;-60
2024/03/10 08:02:50;;;;;;;18.10;6.97;;;;;;;17.09;53.84;99513.25;10447099;28;20029;-60
2024/03/10 08:07:50;;;;;;;14.88;7.25;;;;;;;17.05;53.81;99515.78;10453625;28;20029;-61
2024/03/10 08:12:52;;;;;;;16.20;8.65;;;;;;;17.10;54.57;99512.16;10442507;28;20037;-60
2024/03/10 08:17:52;;;;;;;22.25;8.32;;;;;;;17.16;55.34;99508.22;10453064;28;20025;-59
2024/03/10 08:22:53;;;;;;;19.25;7.60;;;;;;;17.17;54.72;99504.47;10451543;28;20515;-59
2024/03/10 08:27:56;;;;;;;20.37;7.40;;;;;;;17.19;54.36;99513.75;10448244;28;20039;-60
2024/03/10 08:32:56;;;;;;;20.65;8.38;;;;;;;17.15;54.27;99510.09;10451158;28;20307;-60
2024/03/10 08:37:57;;;;;;;11.90;7.87;;;;;;;17.14;54.10;99516.56;10451790;28;20103;-60
2024/03/10 08:42:58;;;;;;;16.20;7.45;;;;;;;17.08;54.64;99507.13;10452504;28;20283;-60
2024/03/10 08:47:59;;;;;;;14.73;7.00;;;;;;;17.08;53.68;99506.34;10450963;28;20021;-60
2024/03/10 08:52:59;;;;;;;13.77;7.65;;;;;;;17.08;53.49;99507.13;10451887;28;20020;-60
2024/03/10 08:57:59;;;;;;;19.23;8.07;;;;;;;17.06;54.14;99506.66;10451529;28;20521;-60
2024/03/10 09:03:00;;;;;;;12.93;7.67;;;;;;;17.03;54.34;99504.59;10450298;28;20389;-61
2024/03/10 09:08:00;;;;;;;12.88;7.38;;;;;;;17.03;52.95;99498.44;10450961;28;20280;-60
2024/03/10 09:13:01;;;;;;;11.00;6.72;;;;;;;17.03;53.52;99493.09;10450473;28;20056;-60
2024/03/10 09:18:01;;;;;;;12.47;7.43;;;;;;;17.02;54.17;99491.50;10449093;28;20400;-59
2024/03/10 09:23:01;;;;;;;11.70;6.70;;;;;;;17.02;54.19;99486.16;10449533;28;20283;-60
2024/03/10 09:28:05;;;;;;;11.50;6.55;;;;;;;17.01;53.03;99498.75;10448837;28;20267;-60
2024/03/10 09:33:09;;;;;;;14.77;6.65;;;;;;;17.02;54.10;99486.94;10445102;28;20408;-61
2024/03/10 09:38:10;;;;;;;11.68;6.85;;;;;;;16.98;52.97;99499.38;10431577;28;20055;-61
2024/03/10 09:43:11;;;;;;;14.25;7.03;;;;;;;16.98;54.80;99498.59;10449942;28;20055;-60
2024/03/10 09:48:12;;;;;;;12.52;7.00;;;;;;;16.96;55.08;99488.22;10449703;28;20063;-60
2024/03/10 09:53:12;;;;;;;13.25;5.45;;;;;;;16.94;55.35;99483.19;10448317;28;20135;-61
2024/03/10 09:58:13;;;;;;;17.65;7.00;;;;;;;16.97;53.94;99489.00;10448056;28;20036;-60
2024/03/10 10:03:14;;;;;;;11.18;6.18;;;;;;;16.95;53.88;99492.00;10449184;28;20043;-61
2024/03/10 10:08:15;;;;;;;13.82;6.97;;;;;;;16.97;54.93;99492.47;10448360;28;20055;-60
2024/03/10 10:13:26;;;;;;;17.27;7.67;;;;;;;16.95;53.91;99479.41;10447779;28;20546;-59
2024/03/10 10:18:27;;;;;;;15.10;6.43;;;;;;;16.94;54.29;99469.78;10446107;28;20303;-59
2024/03/10 10:23:29;;;;;;;17.98;6.82;;;;;;;16.95;54.72;99451.84;10447085;28;20060;-60
2024/03/10 10:28:29;;;;;;;14.63;7.25;;;;;;;16.93;54.06;99430.72;10443710;28;20029;-60
2024/03/10 10:33:30;;;;;;;19.90;7.27;;;;;;;16.97;53.53;99425.53;10448253;28;20484;-62
2024/03/10 10:38:37;;;;;;;16.42;9.07;;;;;;;17.20;55.58;99428.81;10446185;28;20275;-60
2024/03/10 10:43:38;;;;;;;20.55;8.13;;;;;;;17.30;54.68;99419.66;10448281;28;20032;-62
2024/03/10 10:48:39;;;;;;;17.75;10.52;;;;;;;17.35;54.52;99416.81;10447274;28;20064;-62
2024/03/10 10:53:41;;;;;;;17.65;7.78;;;;;;;17.36;55.21;99411.13;10445823;28;20430;-62
2024/03/10 10:58:49;;;;;;;19.60;7.60;;;;;;;17.28;54.71;99414.59;10444598;28;20040;-59
2024/03/10 11:03:54;;;;;;;22.10;8.93;;;;;;;17.27;54.92;99422.97;10446823;28;20060;-61
2024/03/10 11:08:55;;;;;;;22.73;7.72;;;;;;;17.26;53.83;99424.84;10446128;28;20419;-61
2024/03/10 11:13:56;;;;;;;18.88;7.45;;;;;;;17.22;54.83;99423.94;10447295;28;20053;-61
2024/03/10 11:19:17;;;;;;;28.07;10.10;;;;;;;17.18;54.66;99429.13;10445410;28;20021;-62
2024/03/10 11:24:22;;;;;;;15.57;8.13;;;;;;;17.18;55.13;99425.66;10449712;28;21151;-62
2024/03/10 11:29:26;;;;;;;14.65;7.05;;;;;;;17.18;53.50;99426.47;10453210;28;20555;-62
2024/03/10 11:34:27;;;;;;;17.48;7.30;;;;;;;17.19;53.95;99435.28;10454516;28;20078;-62
2024/03/10 11:39:28;;;;;;;16.25;8.25;;;;;;;17.16;53.76;99444.72;10453042;28;20033;-62
2024/03/10 11:44:28;;;;;;;11.65;6.38;;;;;;;17.15;53.94;99445.03;10453277;28;20021;-62
2024/03/10 11:49:29;;;;;;;10.13;7.10;;;;;;;17.13;54.19;99440.00;10451732;28;20025;-63
2024/03/10 11:54:29;;;;;;;11.15;6.38;;;;;;;17.11;54.38;99446.78;10453016;28;20090;-62
2024/03/10 11:59:30;;;;;;;12.63;7.07;;;;;;;17.08;55.08;99440.16;10452110;28;20439;-63
2024/03/10 12:04:30;;;;;;;11.13;6.72;;;;;;;17.08;54.61;99428.66;10452492;28;20289;-62
2024/03/10 12:09:31;;;;;;;10.25;6.15;;;;;;;17.06;54.06;99417.50;10452256;28;20135;-62
2024/03/10 12:14:36;;;;;;;9.57;6.30;;;;;;;17.05;54.29;99413.22;10452117;28;20048;-62
2024/03/10 12:19:36;;;;;;;14.52;6.10;;;;;;;17.05;54.67;99413.22;10451255;28;20773;-62
2024/03/10 12:24:39;;;;;;;11.73;6.05;;;;;;;17.04;54.24;99407.06;10452093;28;20033;-62
2024/03/10 12:29:47;;;;;;;10.63;6.40;;;;;;;17.08;53.71;99409.94;10449789;28;20116;-61
2024/03/10 12:34:48;;;;;;;8.43;6.00;;;;;;;17.03;54.62;99400.16;10450929;28;20475;-61
2024/03/10 12:39:57;;;;;;;7.43;6.13;;;;;;;17.05;53.39;99403.31;10452291;28;20020;-61
2024/03/10 12:44:58;;;;;;;9.98;5.72;;;;;;;17.05;54.26;99405.19;10452377;28;20362;-62
2024/03/10 12:49:58;;;;;;;8.70;5.13;;;;;;;17.04;53.23;99408.97;10451098;28;20043;-61
2024/03/10 12:54:58;;;;;;;10.70;7.07;;;;;;;17.03;54.11;99410.06;10452148;28;20036;-61
2024/03/10 12:59:59;;;;;;;9.52;5.95;;;;;;;17.01;53.50;99410.38;10451385;28;20275;-61
2024/03/10 13:05:00;;;;;;;9.40;6.00;;;;;;;17.01;53.65;99421.09;10451737;28;20664;-62
2024/03/10 13:10:00;;;;;;;8.63;6.43;;;;;;;17.00;53.51;99411.50;10451042;28;20294;-61
2024/03/10 13:15:00;;;;;;;9.65;5.47;;;;;;;17.00;53.39;99400.00;10451178;28;20305;-62
2024/03/10 13:20:08;;;;;;;10.13;6.70;;;;;;;17.00;54.38;99394.66;10450754;28;20463;-61
2024/03/10 13:25:09;;;;;;;9.50;6.60;;;;;;;16.99;53.56;99409.13;10450799;28;20025;-62
2024/03/10 13:30:13;;;;;;;9.40;6.38;;;;;;;16.97;54.07;99396.06;10450453;28;20053;-61
2024/03/10 13:35:14;;;;;;;10.85;6.95;;;;;;;16.97;53.56;99393.38;10449867;28;20044;-61
2024/03/10 13:40:17;;;;;;;7.13;5.80;;;;;;;16.98;53.79;99391.50;10448903;28;20780;-62
2024/03/10 13:45:17;;;;;;;9.10;6.00;;;;;;;16.97;54.15;99384.56;10449936;28;20587;-61
2024/03/10 13:50:19;;;;;;;9.07;6.03;;;;;;;16.95;53.13;99382.22;10449221;28;20029;-61
2024/03/10 13:55:20;;;;;;;7.65;5.72;;;;;;;16.96;53.08;99378.44;10449760;28;20032;-61
2024/03/10 14:00:21;;;;;;;7.25;5.68;;;;;;;16.97;53.13;99371.19;10449272;28;20025;-61
2024/03/10 14:05:22;;;;;;;8.02;5.82;;;;;;;16.97;54.61;99376.53;10449451;28;20033;-61
2024/03/10 14:10:22;;;;;;;9.23;6.75;;;;;;;16.93;54.24;99369.16;10429063;28;20025;-61
2024/03/10 14:15:24;;;;;;;9.90;6.55;;;;;;;16.93;53.65;99352.31;10446531;28;20060;-60
2024/03/10 14:20:25;;;;;;;10.32;7.28;;;;;;;16.95;53.60;99350.09;10440731;28;20369;-63
2024/03/10 14:25:26;;;;;;;9.70;6.53;;;;;;;16.98;54.60;99348.66;10444851;28;20040;-61
2024/03/10 14:30:28;;;;;;;9.80;6.70;;;;;;;16.96;53.39;99359.69;10440581;28;20024;-61
2024/03/10 14:35:28;;;;;;;8.48;6.20;;;;;;;16.93;54.42;99366.47;10445346;28;20275;-61
2024/03/10 14:40:28;;;;;;;6.88;5.70;;;;;;;16.94;54.27;99370.72;10443120;28;20110;-62
2024/03/10 14:45:29;;;;;;;9.13;6.55;;;;;;;16.93;53.49;99369.16;10444187;28;20013;-62
2024/03/10 14:50:32;;;;;;;7.33;5.90;;;;;;;16.93;54.65;99373.72;10445066;28;20068;-63
2024/03/10 14:55:33;;;;;;;7.30;5.95;;;;;;;16.92;54.56;99375.56;10444786;28;20670;-62
2024/03/10 15:00:39;;;;;;;7.85;5.40;;;;;;;16.90;54.66;99374.31;10442636;28;20029;-62
2024/03/10 15:05:43;;;;;;;7.03;5.47;;;;;;;16.90;54.99;99366.28;10444691;28;20400;-61
2024/03/10 15:10:49;;;;;;;7.75;5.28;;;;;;;16.89;53.88;99367.41;10435917;28;228015;-62
2024/03/10 15:15:51;;;;;;;7.15;5.40;;;;;;;16.88;54.39;99350.56;10445105;28;20127;-62
2024/03/10 15:20:52;;;;;;;7.57;6.00;;;;;;;16.86;54.14;99344.72;10445330;28;20032;-62
2024/03/10 15:25:53;;;;;;;8.98;6.38;;;;;;;16.86;53.64;99339.38;10445983;28;20586;-62
2024/03/10 15:30:54;;;;;;;8.88;5.93;;;;;;;16.83;53.43;99350.72;10444125;28;20432;-62
2024/03/10 15:35:55;;;;;;;7.70;5.90;;;;;;;16.83;53.75;99366.78;10445711;28;20024;-62
2024/03/10 15:40:55;;;;;;;8.05;6.00;;;;;;;16.85;53.96;99379.84;10445269;28;20033;-62
2024/03/10 15:45:56;;;;;;;8.17;6.37;;;;;;;16.87;54.06;99380.31;10444232;28;20048;-62
2024/03/10 15:50:57;;;;;;;8.75;6.47;;;;;;;16.84;53.26;99389.00;10445196;28;20283;-62
2024/03/10 15:55:57;;;;;;;8.85;6.05;;;;;;;16.86;54.75;99400.16;10445336;28;20384;-62
2024/03/10 16:00:57;;;;;;;7.10;6.03;;;;;;;16.85;53.66;99403.94;10444659;28;20032;-61
2024/03/10 16:05:58;;;;;;;9.45;7.43;;;;;;;16.90;53.52;99415.28;10443503;28;20781;-63
2024/03/10 16:10:59;;;;;;;9.48;6.60;;;;;;;16.93;53.19;99395.91;10447969;28;20079;-62
2024/03/10 16:16:01;;;;;;;11.27;7.25;;;;;;;16.95;52.43;99387.56;10452035;28;20033;-60
2024/03/10 16:21:01;;;;;;;15.63;8.20;;;;;;;17.08;53.26;99404.56;10450300;28;20016;-60
2024/03/10 16:26:02;;;;;;;36.53;9.70;;;;;;;17.08;54.04;99410.72;10448383;28;20460;-60
2024/03/10 16:31:02;;;;;;;33.42;12.43;;;;;;;17.13;53.34;99409.75;10431386;28;20481;-59
2024/03/10 16:36:04;;;;;;;44.95;10.80;;;;;;;17.12;54.44;99403.59;10451238;28;20333;-62
2024/03/10 16:41:06;;;;;;;29.08;11.35;;;;;;;17.21;53.90;99412.41;10449898;28;20059;-61
2024/03/10 16:46:07;;;;;;;43.38;13.10;;;;;;;17.26;53.44;99422.19;10452419;28;20079;-61
2024/03/10 16:51:08;;;;;;;43.13;12.10;;;;;;;17.31;53.88;99418.56;10451874;28;20048;-62
2024/03/10 16:56:09;;;;;;;37.10;13.88;;;;;;;17.56;56.64;99435.69;10447843;28;20287;-63
2024/03/10 17:01:10;;;;;;;38.03;13.98;;;;;;;17.69;57.18;99459.63;10451538;28;20021;-61
2024/03/10 17:06:11;;;;;;;33.70;12.57;;;;;;;17.76;56.04;99475.25;10451706;28;20119;-60
2024/03/10 17:11:12;;;;;;;31.20;12.82;;;;;;;17.75;55.58;99463.72;10450888;28;20039;-60
2024/03/10 17:16:12;;;;;;;34.77;12.80;;;;;;;17.74;56.85;99469.41;10451434;28;20025;-60
2024/03/10 17:21:13;;;;;;;33.17;11.55;;;;;;;17.66;56.10;99476.34;10449590;28;20268;-60
2024/03/10 17:26:14;;;;;;;25.63;12.15;;;;;;;17.68;55.79;99473.34;10451068;28;20142;-59
2024/03/10 17:31:14;;;;;;;85.90;21.33;;;;;;;17.47;56.40;99484.72;10447766;28;20121;-59
2024/03/10 17:36:14;;;;;;;70.32;18.33;;;;;;;17.43;55.90;99477.66;10447536;28;20043;-60
2024/03/10 17:41:15;;;;;;;40.53;15.90;;;;;;;17.48;56.98;99474.78;10448013;28;20021;-57
2024/03/10 17:46:16;;;;;;;43.50;16.23;;;;;;;17.56;56.36;99483.94;10448888;28;20563;-60
2024/03/10 17:51:16;;;;;;;38.40;15.55;;;;;;;17.54;56.04;99479.69;10447579;28;20314;-61
2024/03/10 17:56:17;;;;;;;38.13;15.18;;;;;;;17.60;55.68;99492.91;10448079;28;20025;-58
2024/03/10 18:01:18;;;;;;;40.47;16.65;;;;;;;17.40;56.88;99500.47;10448473;28;20040;-59
2024/03/10 18:06:18;;;;;;;34.88;15.63;;;;;;;17.39;56.46;99504.25;10448391;28;20388;-58
2024/03/10 18:11:19;;;;;;;35.43;15.20;;;;;;;17.29;56.82;99504.59;10444847;28;20120;-59
2024/03/10 18:16:19;;;;;;;37.05;15.52;;;;;;;17.28;56.05;99511.03;10444558;28;20275;-58
2024/03/10 18:21:20;;;;;;;40.83;13.00;;;;;;;17.22;56.74;99512.31;10444549;28;20086;-59
2024/03/10 18:26:20;;;;;;;28.75;13.45;;;;;;;17.19;56.45;99527.13;10424246;28;20400;-58
2024/03/10 18:31:22;;;;;;;32.03;13.43;;;;;;;17.16;57.06;99543.03;10433852;28;20388;-64
2024/03/10 18:36:22;;;;;;;33.95;13.60;;;;;;;17.12;56.14;99539.41;10437469;28;20029;-62
2024/03/10 18:41:23;;;;;;;41.47;14.00;;;;;;;17.13;57.16;99543.66;10441116;28;20048;-62
2024/03/10 18:46:24;;;;;;;30.23;12.00;;;;;;;17.13;56.65;99533.75;10441272;28;20282;-61
2024/03/10 18:51:25;;;;;;;35.97;14.00;;;;;;;17.15;56.28;99541.47;10430141;28;20364;-62
2024/03/10 18:56:26;;;;;;;27.27;13.40;;;;;;;17.10;57.51;99546.97;10422569;28;20060;-62
2024/03/10 19:01:27;;;;;;;20.92;11.40;;;;;;;17.07;56.98;99534.22;10431991;28;20057;-62
2024/03/10 19:06:29;;;;;;;25.55;11.35;;;;;;;17.05;56.60;99536.41;10445467;28;20544;-62
2024/03/10 19:11:29;;;;;;;29.98;12.57;;;;;;;17.06;57.46;99527.28;10428349;28;20045;-62
2024/03/10 19:16:29;;;;;;;29.25;13.10;;;;;;;17.05;56.26;99515.78;10435778;28;20080;-62
2024/03/10 19:21:30;;;;;;;24.27;11.50;;;;;;;17.03;55.85;99520.66;10443221;28;20039;-62
2024/03/10 19:26:30;;;;;;;16.58;10.27;;;;;;;17.04;57.06;99513.41;10437623;28;20025;-61
2024/03/10 19:31:30;;;;;;;23.27;11.83;;;;;;;17.02;56.14;99513.72;10424173;28;20029;-62
2024/03/10 19:36:31;;;;;;;20.07;11.03;;;;;;;17.01;55.75;99509.47;10433643;28;20275;-60
2024/03/10 19:41:31;;;;;;;18.00;10.73;;;;;;;17.00;56.90;99521.28;10432142;28;20270;-61
2024/03/10 19:46:31;;;;;;;24.83;11.07;;;;;;;17.01;56.54;99517.50;10450738;28;21173;-61
2024/03/10 19:51:32;;;;;;;19.20;9.97;;;;;;;17.02;57.13;99515.63;10453020;28;20297;-61
2024/03/10 19:56:32;;;;;;;19.15;10.15;;;;;;;17.03;56.22;99523.31;10452666;28;20694;-61
2024/03/10 20:01:33;;;;;;;18.45;11.18;;;;;;;17.02;57.07;99521.75;10440658;28;20643;-61
2024/03/10 20:06:33;;;;;;;19.73;10.70;;;;;;;17.02;56.63;99521.75;10453478;28;20020;-61
2024/03/10 20:11:37;;;;;;;16.40;9.27;;;;;;;17.04;57.54;99522.22;10453313;28;20041;-61
2024/03/10 20:16:38;;;;;;;20.63;11.23;;;;;;;17.02;56.06;99537.03;10451603;28;20032;-61
2024/03/10 20:21:38;;;;;;;18.00;10.77;;;;;;;17.03;56.16;99543.97;10453142;28;20013;-61
2024/03/10 20:26:38;;;;;;;19.63;11.33;;;;;;;17.03;56.90;99550.09;10451478;28;20021;-61
2024/03/10 20:31:39;;;;;;;23.33;9.90;;;;;;;17.02;56.31;99558.47;10449329;28;20801;-61
2024/03/10 20:36:39;;;;;;;15.45;9.68;;;;;;;17.00;55.61;99563.34;10450182;28;20275;-60
2024/03/10 20:41:39;;;;;;;14.33;8.93;;;;;;;17.02;55.12;99572.63;10448248;28;20021;-61
2024/03/10 20:46:40;;;;;;;14.63;9.27;;;;;;;17.02;55.59;99558.47;10447514;28;20451;-61
2024/03/10 20:51:41;;;;;;;16.15;9.82;;;;;;;17.02;55.93;99569.16;10447941;28;20770;-60
2024/03/10 20:56:41;;;;;;;12.15;8.82;;;;;;;17.05;56.04;99550.59;10447510;28;20044;-60
2024/03/10 21:01:42;;;;;;;11.98;9.40;;;;;;;17.05;54.77;99566.69;10429957;28;20025;-61
2024/03/10 21:06:42;;;;;;;13.17;9.17;;;;;;;17.06;55.94;99570.13;10447082;28;20175;-61
2024/03/10 21:11:43;;;;;;;16.50;9.95;;;;;;;17.14;54.72;99570.13;10445494;28;20348;-60
2024/03/10 21:16:43;;;;;;;10.85;8.50;;;;;;;17.14;54.98;99575.50;10445382;28;20025;-59
2024/03/10 21:21:43;;;;;;;11.37;9.40;;;;;;;17.22;54.61;99576.63;10446629;28;20028;-61
2024/03/10 21:26:44;;;;;;;12.68;7.63;;;;;;;17.22;53.94;99564.00;10446374;28;20271;-60
2024/03/10 21:31:44;;;;;;;11.90;8.90;;;;;;;17.25;54.94;99568.72;10432924;28;20159;-61
2024/03/10 21:36:45;;;;;;;9.63;8.43;;;;;;;17.31;54.56;99573.94;10446040;28;20279;-60
2024/03/10 21:41:45;;;;;;;10.75;8.52;;;;;;;17.29;55.13;99568.13;10446430;28;20385;-61
2024/03/10 21:46:46;;;;;;;13.93;9.30;;;;;;;17.31;54.40;99574.72;10445572;28;20033;-61
2024/03/10 21:51:46;;;;;;;12.03;8.27;;;;;;;17.34;53.82;99566.06;10445654;28;20017;-60
2024/03/10 21:56:46;;;;;;;10.65;8.52;;;;;;;17.34;54.23;99566.06;10445185;28;20287;-61
2024/03/10 22:01:47;;;;;;;10.13;8.90;;;;;;;17.37;53.92;99565.44;10445188;28;20021;-60
2024/03/10 22:06:47;;;;;;;11.20;8.25;;;;;;;17.37;54.06;99560.06;10444442;28;20288;-61
2024/03/10 22:11:48;;;;;;;11.57;8.93;;;;;;;17.35;54.36;99564.97;10444889;28;20121;-59
2024/03/10 22:16:48;;;;;;;12.68;8.18;;;;;;;17.34;53.45;99566.06;10444643;28;20755;-61
2024/03/10 22:21:49;;;;;;;10.10;8.33;;;;;;;17.35;53.17;99564.97;10444619;28;20373;-61
2024/03/10 22:26:50;;;;;;;9.68;7.72;;;;;;;17.36;54.60;99571.09;10444607;28;20270;-60
2024/03/10 22:31:50;;;;;;;9.10;7.60;;;;;;;17.32;54.74;99568.28;10444204;28;20029;-61
2024/03/10 22:36:51;;;;;;;15.98;8.48;;;;;;;17.34;52.82;99568.75;10442563;28;20402;-60
2024/03/10 22:41:51;;;;;;;11.60;7.17;;;;;;;17.35;53.63;99578.34;10444422;28;20025;-60
2024/03/10 22:46:51;;;;;;;10.45;7.97;;;;;;;17.33;53.94;99585.13;10443398;28;20519;-61
2024/03/10 22:51:52;;;;;;;11.17;8.13;;;;;;;17.33;54.00;99572.53;10443489;28;20032;-61
2024/03/10 22:56:52;;;;;;;10.43;8.27;;;;;;;17.34;53.29;99574.09;10443316;28;20286;-60
2024/03/10 23:01:52;;;;;;;9.93;7.40;;;;;;;17.33;54.24;99582.44;10442184;28;20274;-61
2024/03/10 23:06:53;;;;;;;10.70;7.53;;;;;;;17.29;53.27;99582.31;10441660;28;20283;-61
2024/03/10 23:11:53;;;;;;;10.90;8.05;;;;;;;17.32;53.07;99570.94;10442979;28;20292;-60
2024/03/10 23:16:56;;;;;;;9.10;7.80;;;;;;;17.32;54.34;99573.63;10441735;28;20450;-61
2024/03/10 23:21:56;;;;;;;8.43;7.07;;;;;;;17.30;53.22;99569.69;10448804;28;20171;-59
2024/03/10 23:26:57;;;;;;;11.03;8.00;;;;;;;17.31;53.75;99573.94;10449618;28;20025;-61